createdAt,value
2022-12-16T00:01:25.978Z,-2.90
2022-12-16T00:03:55.577Z,-2.80
2022-12-16T00:06:26.812Z,-2.70
2022-12-16T00:08:53.819Z,-2.70
2022-12-16T00:11:22.200Z,-2.80
2022-12-16T00:13:49.842Z,-2.80
2022-12-16T00:16:20.347Z,-2.70
2022-12-16T00:18:48.370Z,-2.80
2022-12-16T00:21:19.066Z,-2.80
2022-12-16T00:23:47.785Z,-2.60
2022-12-16T00:26:14.620Z,-2.90
2022-12-16T00:28:45.058Z,-2.80
2022-12-16T00:31:12.241Z,-2.80
2022-12-16T00:33:39.063Z,-2.80
2022-12-16T00:36:05.972Z,-3.00
2022-12-16T00:38:32.712Z,-2.90
2022-12-16T00:40:59.941Z,-2.90
2022-12-16T00:43:26.718Z,-2.90
2022-12-16T00:45:54.640Z,-2.90
2022-12-16T00:48:25.816Z,-2.90
2022-12-16T00:50:55.297Z,-2.90
2022-12-16T00:53:24.940Z,-2.90
2022-12-16T00:55:53.734Z,-2.90
2022-12-16T00:58:20.641Z,-2.80
2022-12-16T01:00:47.900Z,-2.80
2022-12-16T01:03:21.126Z,-2.80
2022-12-16T01:05:48.653Z,-2.80
2022-12-16T01:08:16.026Z,-2.80
2022-12-16T01:10:43.480Z,-2.90
2022-12-16T01:13:10.138Z,-2.90
2022-12-16T01:15:38.018Z,-2.90
2022-12-16T01:18:05.584Z,-2.90
2022-12-16T01:20:33.374Z,-2.90
2022-12-16T01:23:00.896Z,-2.90
2022-12-16T01:25:27.557Z,-2.80
2022-12-16T01:27:54.869Z,-2.70
2022-12-16T01:30:23.470Z,-2.70
2022-12-16T01:32:50.296Z,-2.70
2022-12-16T01:35:50.835Z,-2.70
2022-12-16T01:38:04.732Z,-2.60
2022-12-16T01:40:31.930Z,-2.60
2022-12-16T01:42:58.860Z,-2.60
2022-12-16T01:45:30.619Z,-2.60
2022-12-16T01:48:01.508Z,-2.70
2022-12-16T01:50:30.334Z,-2.70
2022-12-16T01:53:00.339Z,-2.70
2022-12-16T01:55:45.056Z,-2.50
2022-12-16T01:58:20.468Z,-2.50
2022-12-16T02:00:47.849Z,-2.30
2022-12-16T02:03:16.351Z,-2.40
2022-12-16T02:05:44.909Z,-2.40
2022-12-16T02:08:18.559Z,-2.40
2022-12-16T02:11:04.566Z,-2.50
2022-12-16T02:13:59.454Z,-2.40
2022-12-16T02:16:47.997Z,-2.40
2022-12-16T02:19:48.786Z,-2.50
2022-12-16T02:22:45.235Z,-2.40
2022-12-16T02:25:27.571Z,-2.20
2022-12-16T02:28:19.206Z,-2.40
2022-12-16T02:31:06.908Z,-2.30
2022-12-16T02:33:56.228Z,-2.40
2022-12-16T02:36:44.364Z,-2.40
2022-12-16T02:39:21.226Z,-2.30
2022-12-16T02:42:02.087Z,-2.20
2022-12-16T02:44:44.964Z,-2.20
2022-12-16T02:47:11.638Z,-2.20
2022-12-16T02:49:50.420Z,-2.20
2022-12-16T02:52:20.968Z,-2.30
2022-12-16T02:54:49.984Z,-2.30
2022-12-16T02:57:24.097Z,-2.50
2022-12-16T03:00:14.257Z,-2.30
2022-12-16T03:02:53.874Z,-2.20
2022-12-16T03:05:45.672Z,-2.10
2022-12-16T03:08:23.954Z,-2.10
2022-12-16T03:10:55.249Z,-2.00
2022-12-16T03:13:22.901Z,-2.10
2022-12-16T03:15:53.693Z,-2.10
2022-12-16T03:18:21.971Z,-2.10
2022-12-16T03:21:02.963Z,-2.30
2022-12-16T03:23:36.146Z,-2.20
2022-12-16T03:26:09.131Z,-2.30
2022-12-16T03:28:48.507Z,-2.30
2022-12-16T03:31:38.889Z,-2.20
2022-12-16T03:34:14.961Z,-2.10
2022-12-16T03:36:43.746Z,-2.10
2022-12-16T03:39:10.977Z,-2.20
2022-12-16T03:41:38.718Z,-2.20
2022-12-16T03:44:08.632Z,-2.20
2022-12-16T03:46:35.913Z,-2.20
2022-12-16T03:49:02.754Z,-2.10
2022-12-16T03:51:29.856Z,-2.10
2022-12-16T03:53:56.995Z,-2.10
2022-12-16T03:56:23.822Z,-2.10
2022-12-16T03:58:50.613Z,-2.10
2022-12-16T04:01:17.391Z,-2.10
2022-12-16T04:03:44.238Z,-2.00
2022-12-16T04:06:11.015Z,-2.00
2022-12-16T04:08:38.177Z,-2.10
2022-12-16T04:11:23.698Z,-2.00
2022-12-16T04:14:09.356Z,-1.90
2022-12-16T04:16:54.617Z,-1.90
2022-12-16T04:19:53.493Z,-2.00
2022-12-16T04:22:53.964Z,-2.00
2022-12-16T04:25:28.595Z,-1.90
2022-12-16T04:27:55.281Z,-1.90
2022-12-16T04:30:22.244Z,-1.90
2022-12-16T04:33:32.725Z,-1.90
2022-12-16T04:36:19.430Z,-2.00
2022-12-16T04:39:04.755Z,-2.00
2022-12-16T04:41:50.042Z,-2.00
2022-12-16T04:44:35.366Z,-2.10
2022-12-16T04:47:24.703Z,-2.10
2022-12-16T04:50:10.667Z,-2.20
2022-12-16T04:52:56.245Z,-2.00
2022-12-16T04:55:42.283Z,-2.00
2022-12-16T04:58:28.952Z,-2.00
2022-12-16T05:01:15.021Z,-1.90
2022-12-16T05:04:00.352Z,-1.90
2022-12-16T05:06:46.076Z,-1.90
2022-12-16T05:09:31.483Z,-1.90
2022-12-16T05:12:16.798Z,-1.80
2022-12-16T05:15:04.627Z,-1.90
2022-12-16T05:17:50.430Z,-2.00
2022-12-16T05:20:35.775Z,-2.10
2022-12-16T05:23:23.625Z,-2.10
2022-12-16T05:26:09.527Z,-2.20
2022-12-16T05:28:55.172Z,-2.10
2022-12-16T05:31:40.596Z,-2.20
2022-12-16T05:34:27.593Z,-2.20
2022-12-16T05:37:13.852Z,-2.20
2022-12-16T05:39:59.385Z,-2.10
2022-12-16T05:42:45.580Z,-2.00
2022-12-16T05:45:31.026Z,-2.10
2022-12-16T05:48:16.641Z,-2.10
2022-12-16T05:51:01.818Z,-2.10
2022-12-16T05:53:47.173Z,-2.10
2022-12-16T05:56:32.877Z,-2.10
2022-12-16T05:59:18.769Z,-2.00
2022-12-16T06:02:04.505Z,-2.00
2022-12-16T06:04:50.183Z,-2.00
2022-12-16T06:07:35.881Z,-2.00
2022-12-16T06:10:21.104Z,-2.00
2022-12-16T06:13:09.739Z,-2.00
2022-12-16T06:15:55.652Z,-1.90
2022-12-16T06:18:41.867Z,-2.00
2022-12-16T06:21:27.324Z,-2.10
2022-12-16T06:24:13.080Z,-2.10
2022-12-16T06:26:58.494Z,-2.10
2022-12-16T06:29:45.237Z,-2.20
2022-12-16T06:32:30.432Z,-2.10
2022-12-16T06:35:15.970Z,-2.00
2022-12-16T06:38:06.839Z,-2.20
2022-12-16T06:40:53.094Z,-2.30
2022-12-16T06:43:40.399Z,-2.10
2022-12-16T06:46:25.938Z,-2.30
2022-12-16T06:49:11.619Z,-2.30
2022-12-16T06:51:58.427Z,-2.40
2022-12-16T06:54:43.820Z,-2.40
2022-12-16T06:57:29.069Z,-2.40
2022-12-16T07:00:14.860Z,-2.40
2022-12-16T07:03:00.776Z,-2.40
2022-12-16T07:05:48.670Z,-2.40
2022-12-16T07:08:34.913Z,-2.40
2022-12-16T07:11:20.137Z,-2.40
2022-12-16T07:14:05.500Z,-2.20
2022-12-16T07:16:51.261Z,-2.30
2022-12-16T07:19:36.757Z,-2.20
2022-12-16T07:22:22.724Z,-2.10
2022-12-16T07:25:07.970Z,-2.10
2022-12-16T07:27:57.932Z,-2.20
2022-12-16T07:30:44.207Z,-2.10
2022-12-16T07:33:30.537Z,-2.10
2022-12-16T07:36:17.661Z,-2.10
2022-12-16T07:39:06.624Z,-2.20
2022-12-16T07:41:51.995Z,-2.20
2022-12-16T07:44:37.895Z,-2.10
2022-12-16T07:47:23.098Z,-2.10
2022-12-16T07:50:08.557Z,-2.20
2022-12-16T07:52:54.065Z,-2.20
2022-12-16T07:55:41.401Z,-2.10
2022-12-16T07:58:28.142Z,-2.10
2022-12-16T08:01:13.722Z,-2.20
2022-12-16T08:03:59.454Z,-2.30
2022-12-16T08:06:44.842Z,-2.30
2022-12-16T08:09:30.172Z,-2.40
2022-12-16T08:12:15.509Z,-2.40
2022-12-16T08:15:03.895Z,-2.30
2022-12-16T08:17:49.538Z,-2.30
2022-12-16T08:20:34.843Z,-2.20
2022-12-16T08:23:20.007Z,-2.20
2022-12-16T08:26:05.867Z,-2.20
2022-12-16T08:28:51.318Z,-2.20
2022-12-16T08:31:36.798Z,-2.20
2022-12-16T08:34:22.385Z,-2.20
2022-12-16T08:37:08.046Z,-2.10
2022-12-16T08:40:10.985Z,-2.00
2022-12-16T08:43:00.120Z,-2.10
2022-12-16T08:45:45.591Z,-2.10
2022-12-16T08:48:31.453Z,-2.10
2022-12-16T08:51:21.114Z,-2.10
2022-12-16T08:54:07.088Z,-2.00
2022-12-16T08:56:52.483Z,-1.90
2022-12-16T08:59:38.223Z,-1.90
2022-12-16T09:02:23.794Z,-1.80
2022-12-16T09:05:09.398Z,-1.60
2022-12-16T09:07:54.623Z,-1.60
2022-12-16T09:10:41.339Z,-1.80
2022-12-16T09:13:28.905Z,-1.80
2022-12-16T09:16:19.305Z,-1.80
2022-12-16T09:19:08.524Z,-1.80
2022-12-16T09:21:55.179Z,-1.60
2022-12-16T09:24:41.892Z,-1.70
2022-12-16T09:27:28.024Z,-1.70
2022-12-16T09:30:13.303Z,-1.80
2022-12-16T09:33:03.379Z,-1.80
2022-12-16T09:35:50.921Z,-1.80
2022-12-16T09:38:40.152Z,-1.80
2022-12-16T09:41:59.406Z,-1.70
2022-12-16T09:44:58.443Z,-1.50
2022-12-16T09:48:03.165Z,-1.50
2022-12-16T09:50:50.375Z,-1.60
2022-12-16T09:53:40.978Z,-1.60
2022-12-16T09:56:35.033Z,-1.70
2022-12-16T09:59:32.912Z,-1.70
2022-12-16T10:02:19.120Z,-1.80
2022-12-16T10:05:09.917Z,-1.70
2022-12-16T10:08:00.765Z,-1.70
2022-12-16T10:11:01.379Z,-1.70
2022-12-16T10:14:14.488Z,-1.70
2022-12-16T10:17:20.981Z,-1.80
2022-12-16T10:20:49.363Z,-1.80
2022-12-16T10:23:42.955Z,-1.90
2022-12-16T10:27:23.951Z,-1.80
2022-12-16T10:30:09.691Z,-1.70
2022-12-16T10:33:10.812Z,-1.60
2022-12-16T10:36:11.990Z,-1.50
2022-12-16T10:39:01.949Z,-1.40
2022-12-16T10:41:54.855Z,-1.50
2022-12-16T10:44:58.561Z,-1.60
2022-12-16T10:47:44.056Z,-1.50
2022-12-16T10:50:33.999Z,-1.30
2022-12-16T10:53:22.213Z,-1.30
2022-12-16T10:56:19.573Z,-1.30
2022-12-16T10:59:09.794Z,-1.20
2022-12-16T11:01:55.411Z,-1.30
2022-12-16T11:04:57.563Z,-1.30
2022-12-16T11:08:03.719Z,-1.00
2022-12-16T11:10:51.319Z,-1.10
2022-12-16T11:13:54.692Z,-1.10
2022-12-16T11:16:46.894Z,-1.30
2022-12-16T11:19:40.798Z,-1.30
2022-12-16T11:22:37.097Z,-1.20
2022-12-16T11:25:25.063Z,-1.30
2022-12-16T11:31:36.104Z,-1.20
2022-12-16T11:34:22.627Z,-1.20
2022-12-16T11:37:11.151Z,-1.30
2022-12-16T11:39:58.813Z,-1.50
2022-12-16T11:42:47.515Z,-1.60
2022-12-16T11:45:37.718Z,-1.50
2022-12-16T11:48:52.162Z,-1.40
2022-12-16T11:51:39.853Z,-1.30
2022-12-16T11:54:45.462Z,-1.20
2022-12-16T11:58:05.987Z,-1.30
2022-12-16T12:00:55.378Z,-1.40
2022-12-16T12:03:46.273Z,-1.40
2022-12-16T12:06:45.106Z,-1.50
2022-12-16T12:09:43.752Z,-1.40
2022-12-16T12:12:56.993Z,-1.40
2022-12-16T12:15:54.527Z,-1.50
2022-12-16T12:18:59.454Z,-1.50
2022-12-16T12:21:59.926Z,-1.50
2022-12-16T12:25:10.875Z,-1.40
2022-12-16T12:28:14.021Z,-1.40
2022-12-16T12:31:14.469Z,-1.30
2022-12-16T12:34:18.037Z,-1.40
2022-12-16T12:37:14.009Z,-1.40
2022-12-16T12:40:09.264Z,-1.40
2022-12-16T12:43:28.879Z,-1.50
2022-12-16T12:46:32.260Z,-1.40
2022-12-16T12:49:34.168Z,-1.30
2022-12-16T12:52:57.232Z,-1.20
2022-12-16T12:55:50.342Z,-1.40
2022-12-16T12:58:36.679Z,-1.50
2022-12-16T13:01:23.671Z,-1.40
2022-12-16T13:04:21.519Z,-1.40
2022-12-16T13:07:07.548Z,-1.50
2022-12-16T13:09:54.888Z,-1.50
2022-12-16T13:12:44.489Z,-1.60
2022-12-16T13:15:59.554Z,-1.50
2022-12-16T13:18:52.205Z,-1.50
2022-12-16T13:21:57.157Z,-1.50
2022-12-16T13:24:45.565Z,-1.50
2022-12-16T13:27:33.987Z,-1.60
2022-12-16T13:30:36.939Z,-1.60
2022-12-16T13:33:27.959Z,-1.60
2022-12-16T13:36:18.510Z,-1.60
2022-12-16T13:39:12.062Z,-1.50
2022-12-16T13:41:58.158Z,-1.60
2022-12-16T13:45:02.019Z,-1.60
2022-12-16T13:47:52.385Z,-1.70
2022-12-16T13:50:59.938Z,-1.70
2022-12-16T13:53:49.694Z,-1.60
2022-12-16T13:56:42.419Z,-1.70
2022-12-16T14:02:11.992Z,-1.60
2022-12-16T14:05:07.168Z,-1.60
2022-12-16T14:07:56.569Z,-1.60
2022-12-16T14:10:47.076Z,-1.70
2022-12-16T14:13:52.092Z,-1.70
2022-12-16T14:17:11.705Z,-1.70
2022-12-16T14:20:21.803Z,-1.60
2022-12-16T14:23:47.226Z,-1.60
2022-12-16T14:26:29.796Z,-1.50
2022-12-16T14:29:16.942Z,-1.50
2022-12-16T14:32:03.342Z,-1.60
2022-12-16T14:34:51.451Z,-1.60
2022-12-16T14:37:42.830Z,-1.60
2022-12-16T14:40:49.516Z,-1.60
2022-12-16T14:43:39.097Z,-1.40
2022-12-16T14:46:26.245Z,-1.30
2022-12-16T14:49:11.958Z,-1.50
2022-12-16T14:52:05.439Z,-1.60
2022-12-16T14:54:56.654Z,-1.60
2022-12-16T14:57:41.884Z,-1.60
2022-12-16T15:00:27.736Z,-1.60
2022-12-16T15:03:44.956Z,-1.40
2022-12-16T15:06:36.491Z,-1.50
2022-12-16T15:09:24.187Z,-1.50
2022-12-16T15:12:12.496Z,-1.40
2022-12-16T15:14:59.747Z,-1.40
2022-12-16T15:18:11.138Z,-1.40
2022-12-16T15:21:09.600Z,-1.40
2022-12-16T15:24:03.027Z,-1.50
2022-12-16T15:26:52.214Z,-1.60
2022-12-16T15:29:58.061Z,-1.60
2022-12-16T15:32:43.542Z,-1.60
2022-12-16T15:35:43.270Z,-1.60
2022-12-16T15:38:35.034Z,-1.60
2022-12-16T15:41:22.290Z,-1.60
2022-12-16T15:44:08.362Z,-1.60
2022-12-16T15:46:56.171Z,-1.50
2022-12-16T15:49:45.617Z,-1.50
2022-12-16T15:52:56.638Z,-1.50
2022-12-16T15:56:02.590Z,-1.50
2022-12-16T15:58:56.692Z,-1.60
2022-12-16T16:01:46.503Z,-1.40
2022-12-16T16:04:52.225Z,-1.40
2022-12-16T16:07:40.563Z,-1.40
2022-12-16T16:10:39.194Z,-1.50
2022-12-16T16:13:25.370Z,-1.40
2022-12-16T16:16:14.663Z,-1.40
2022-12-16T16:19:03.720Z,-1.40
2022-12-16T16:21:49.032Z,-1.40
2022-12-16T16:24:34.593Z,-1.40
2022-12-16T16:27:23.695Z,-1.40
2022-12-16T16:30:09.328Z,-1.40
2022-12-16T16:32:56.441Z,-1.40
2022-12-16T16:35:42.112Z,-1.40
2022-12-16T16:38:30.951Z,-1.40
2022-12-16T16:41:17.366Z,-1.30
2022-12-16T16:44:03.714Z,-1.30
2022-12-16T16:46:52.199Z,-1.30
2022-12-16T16:49:48.894Z,-1.20
2022-12-16T16:52:37.837Z,-1.20
2022-12-16T16:55:24.253Z,-1.20
2022-12-16T16:58:11.318Z,-1.30
2022-12-16T17:00:57.105Z,-1.10
2022-12-16T17:03:44.093Z,-1.10
2022-12-16T17:06:34.346Z,-1.20
2022-12-16T17:09:19.787Z,-1.30
2022-12-16T17:12:05.043Z,-1.30
2022-12-16T17:14:50.476Z,-1.40
2022-12-16T17:17:36.054Z,-1.50
2022-12-16T17:20:21.549Z,-1.40
2022-12-16T17:23:06.909Z,-1.60
2022-12-16T17:25:55.382Z,-1.50
2022-12-16T17:28:42.355Z,-1.50
2022-12-16T17:31:29.100Z,-1.50
2022-12-16T17:34:14.794Z,-1.40
2022-12-16T17:37:00.101Z,-1.30
2022-12-16T17:39:47.338Z,-1.30
2022-12-16T17:42:32.666Z,-1.10
2022-12-16T17:45:18.266Z,-1.10
2022-12-16T17:48:04.061Z,-1.30
2022-12-16T17:50:49.749Z,-1.30
2022-12-16T17:53:36.239Z,-1.20
2022-12-16T17:56:24.248Z,-1.10
2022-12-16T17:59:11.333Z,-1.30
2022-12-16T18:01:59.061Z,-1.40
2022-12-16T18:04:44.893Z,-1.40
2022-12-16T18:07:30.283Z,-1.30
2022-12-16T18:10:15.975Z,-1.40
2022-12-16T18:13:02.687Z,-1.30
2022-12-16T18:15:48.638Z,-1.40
2022-12-16T18:18:35.405Z,-1.40
2022-12-16T18:21:31.421Z,-1.50
2022-12-16T18:24:18.050Z,-1.70
2022-12-16T18:27:03.728Z,-1.70
2022-12-16T18:29:49.278Z,-1.70
2022-12-16T18:32:35.362Z,-1.60
2022-12-16T18:35:21.418Z,-1.70
2022-12-16T18:38:06.666Z,-1.60
2022-12-16T18:40:54.973Z,-1.70
2022-12-16T18:43:52.395Z,-1.70
2022-12-16T18:46:37.742Z,-1.80
2022-12-16T18:49:23.240Z,-1.80
2022-12-16T18:52:08.706Z,-1.80
2022-12-16T18:54:55.193Z,-1.80
2022-12-16T18:57:41.428Z,-1.80
2022-12-16T19:00:32.225Z,-1.80
2022-12-16T19:03:18.588Z,-1.80
2022-12-16T19:06:15.026Z,-1.60
2022-12-16T19:09:01.826Z,-1.70
2022-12-16T19:11:52.070Z,-1.80
2022-12-16T19:14:38.963Z,-1.80
2022-12-16T19:17:26.904Z,-1.90
2022-12-16T19:20:13.304Z,-1.80
2022-12-16T19:26:01.820Z,-1.60
2022-12-16T19:28:47.328Z,-1.70
2022-12-16T19:31:38.955Z,-1.70
2022-12-16T19:38:23.962Z,-1.70
2022-12-16T19:41:17.868Z,-1.80
2022-12-16T19:50:16.234Z,-1.60
2022-12-16T19:53:02.657Z,-1.60
2022-12-16T19:55:49.932Z,-1.20
2022-12-16T19:58:43.941Z,-1.40
2022-12-16T20:01:30.557Z,-1.60
2022-12-16T20:04:20.989Z,-1.60
2022-12-16T20:07:08.075Z,-1.70
2022-12-16T20:09:56.277Z,-1.70
2022-12-16T20:12:42.568Z,-1.60
2022-12-16T20:15:35.542Z,-1.50
2022-12-16T20:18:27.608Z,-1.50
2022-12-16T20:21:13.675Z,-1.60
2022-12-16T20:24:01.473Z,-1.70
2022-12-16T20:26:52.270Z,-1.70
2022-12-16T20:29:39.111Z,-1.80
2022-12-16T20:32:30.022Z,-1.90
2022-12-16T20:35:15.810Z,-1.90
2022-12-16T20:38:16.200Z,-1.90
2022-12-16T20:41:03.906Z,-1.90
2022-12-16T20:43:53.955Z,-1.90
2022-12-16T20:46:43.805Z,-2.00
2022-12-16T20:49:30.078Z,-2.00
2022-12-16T20:52:16.805Z,-1.80
2022-12-16T20:55:04.783Z,-1.90
2022-12-16T20:57:56.655Z,-1.90
2022-12-16T21:00:50.933Z,-2.00
2022-12-16T21:03:40.344Z,-2.00
2022-12-16T21:06:26.312Z,-2.00
2022-12-16T21:09:17.250Z,-2.00
2022-12-16T21:17:56.172Z,-2.30
2022-12-16T21:20:52.192Z,-2.30
2022-12-16T21:40:16.331Z,-2.10
2022-12-16T21:43:04.732Z,-2.00
2022-12-16T21:45:52.280Z,-2.00
2022-12-16T21:48:41.887Z,-2.20
2022-12-16T21:51:42.869Z,-2.30
2022-12-16T21:54:29.477Z,-2.30
2022-12-16T21:59:52.850Z,-2.20
2022-12-16T22:02:44.139Z,-2.30
2022-12-16T22:05:38.478Z,-2.30
2022-12-16T22:08:29.892Z,-2.40
2022-12-16T22:11:20.179Z,-2.20
2022-12-16T22:14:11.051Z,-2.20
2022-12-16T22:22:21.683Z,-2.20
2022-12-16T22:25:14.261Z,-2.30
2022-12-16T22:28:00.621Z,-2.40
2022-12-16T22:30:48.376Z,-2.60
2022-12-16T22:33:33.987Z,-2.70
2022-12-16T22:36:22.812Z,-2.50
2022-12-16T22:39:08.181Z,-2.60
2022-12-16T22:44:23.586Z,-2.80
2022-12-16T22:55:36.932Z,-2.70
2022-12-16T23:01:05.130Z,-2.60
2022-12-16T23:03:50.840Z,-2.60
2022-12-16T23:06:37.954Z,-2.60
2022-12-16T23:09:25.436Z,-2.60
2022-12-16T23:12:12.760Z,-2.50
2022-12-16T23:17:40.029Z,-2.60
2022-12-16T23:20:26.882Z,-2.60
2022-12-16T23:23:16.214Z,-2.60
2022-12-16T23:26:02.298Z,-2.70
2022-12-16T23:28:48.085Z,-2.70
2022-12-16T23:31:34.442Z,-2.70
2022-12-16T23:34:20.473Z,-2.80
2022-12-16T23:37:06.279Z,-2.70
2022-12-16T23:39:51.977Z,-2.60
2022-12-16T23:42:39.677Z,-2.60
